createdAt,value
2022-09-16T00:00:51.137Z,16.31
2022-09-16T00:03:19.225Z,16.35
2022-09-16T00:05:49.032Z,16.32
2022-09-16T00:08:16.989Z,16.30
2022-09-16T00:10:44.494Z,16.29
2022-09-16T00:13:13.030Z,16.28
2022-09-16T00:15:49.421Z,16.28
2022-09-16T00:18:16.778Z,16.23
2022-09-16T00:20:49.726Z,16.23
2022-09-16T00:23:17.850Z,16.24
2022-09-16T00:25:44.903Z,16.25
2022-09-16T00:28:12.155Z,16.23
2022-09-16T00:30:39.419Z,16.19
2022-09-16T00:33:06.620Z,16.19
2022-09-16T00:35:33.873Z,16.19
2022-09-16T00:38:00.870Z,16.24
2022-09-16T00:40:28.636Z,16.26
2022-09-16T00:42:55.583Z,16.15
2022-09-16T00:45:27.976Z,16.09
2022-09-16T00:48:01.900Z,16.13
2022-09-16T00:50:41.859Z,16.06
2022-09-16T00:53:13.861Z,16.12
2022-09-16T00:55:43.461Z,16.01
2022-09-16T00:58:22.705Z,15.95
2022-09-16T01:00:51.123Z,15.97
2022-09-16T01:03:19.762Z,16.00
2022-09-16T01:05:48.038Z,16.00
2022-09-16T01:08:15.724Z,15.96
2022-09-16T01:10:43.923Z,15.94
2022-09-16T01:13:15.061Z,15.95
2022-09-16T01:15:57.474Z,15.89
2022-09-16T01:18:39.255Z,15.86
2022-09-16T01:21:22.625Z,15.79
2022-09-16T01:24:04.467Z,15.76
2022-09-16T01:26:58.815Z,15.83
2022-09-16T01:29:57.031Z,15.82
2022-09-16T01:32:41.730Z,15.81
2022-09-16T01:35:41.326Z,15.73
2022-09-16T01:38:37.736Z,15.67
2022-09-16T01:41:11.511Z,15.73
2022-09-16T01:43:52.363Z,15.67
2022-09-16T01:46:35.545Z,15.72
2022-09-16T01:49:25.365Z,15.71
2022-09-16T01:52:36.141Z,15.74
2022-09-16T01:55:08.593Z,15.73
2022-09-16T01:57:49.040Z,15.77
2022-09-16T02:00:17.208Z,15.71
2022-09-16T02:03:11.829Z,15.77
2022-09-16T02:05:46.600Z,15.74
2022-09-16T02:08:19.078Z,15.77
2022-09-16T02:10:54.924Z,15.79
2022-09-16T02:13:39.083Z,15.81
2022-09-16T02:16:14.958Z,15.87
2022-09-16T02:18:46.159Z,15.97
2022-09-16T02:21:16.598Z,15.93
2022-09-16T02:23:54.420Z,16.06
2022-09-16T02:26:28.026Z,16.06
2022-09-16T02:28:56.811Z,16.09
2022-09-16T02:31:30.729Z,16.20
2022-09-16T02:34:07.254Z,16.18
2022-09-16T02:36:37.951Z,16.20
2022-09-16T02:39:12.061Z,16.19
2022-09-16T02:41:42.457Z,16.25
2022-09-16T02:44:11.038Z,16.23
2022-09-16T02:46:49.903Z,16.30
2022-09-16T02:49:34.847Z,16.32
2022-09-16T02:52:24.342Z,16.35
2022-09-16T02:55:14.181Z,16.36
2022-09-16T02:57:42.001Z,16.39
2022-09-16T03:00:10.476Z,16.42
2022-09-16T03:02:37.773Z,16.49
2022-09-16T03:05:06.054Z,16.41
2022-09-16T03:07:34.246Z,16.36
2022-09-16T03:10:01.429Z,16.33
2022-09-16T03:12:34.819Z,16.37
2022-09-16T03:15:29.348Z,16.44
2022-09-16T03:18:18.403Z,16.45
2022-09-16T03:20:51.494Z,16.45
2022-09-16T03:23:31.034Z,16.49
2022-09-16T03:26:09.233Z,16.52
2022-09-16T03:28:45.661Z,16.39
2022-09-16T03:31:24.779Z,16.38
2022-09-16T03:33:58.299Z,16.34
2022-09-16T03:36:33.664Z,16.32
2022-09-16T03:39:06.344Z,16.33
2022-09-16T03:41:35.045Z,16.31
2022-09-16T03:44:04.194Z,16.20
2022-09-16T03:46:33.467Z,16.21
2022-09-16T03:49:01.457Z,16.27
2022-09-16T03:51:31.908Z,16.22
2022-09-16T03:54:00.371Z,16.16
2022-09-16T03:56:28.854Z,16.17
2022-09-16T03:58:56.643Z,16.09
2022-09-16T04:01:23.471Z,16.19
2022-09-16T04:03:52.562Z,16.07
2022-09-16T04:06:20.430Z,16.07
2022-09-16T04:08:50.903Z,16.07
2022-09-16T04:11:18.568Z,16.02
2022-09-16T04:13:45.594Z,16.06
2022-09-16T04:16:12.724Z,16.09
2022-09-16T04:18:39.714Z,16.12
2022-09-16T04:21:06.612Z,16.14
2022-09-16T04:23:33.592Z,16.17
2022-09-16T04:26:02.912Z,16.26
2022-09-16T04:28:32.030Z,16.23
2022-09-16T04:31:06.433Z,16.29
2022-09-16T04:33:35.674Z,16.32
2022-09-16T04:36:09.131Z,16.39
2022-09-16T04:38:36.974Z,16.41
2022-09-16T04:41:21.124Z,16.53
2022-09-16T04:43:52.970Z,16.61
2022-09-16T04:46:20.315Z,16.73
2022-09-16T04:48:48.853Z,16.92
2022-09-16T04:51:16.411Z,17.06
2022-09-16T04:53:44.392Z,17.10
2022-09-16T04:56:15.894Z,17.09
2022-09-16T04:58:45.038Z,17.13
2022-09-16T05:01:17.928Z,17.22
2022-09-16T05:03:47.547Z,17.21
2022-09-16T05:06:20.655Z,17.32
2022-09-16T05:08:49.340Z,17.42
2022-09-16T05:11:21.945Z,17.47
2022-09-16T05:13:48.981Z,17.45
2022-09-16T05:16:19.034Z,17.45
2022-09-16T05:18:48.015Z,17.55
2022-09-16T05:21:20.288Z,17.62
2022-09-16T05:23:47.942Z,17.71
2022-09-16T05:26:21.091Z,17.83
2022-09-16T05:28:48.861Z,18.04
2022-09-16T05:31:16.979Z,18.34
2022-09-16T05:33:47.094Z,18.68
2022-09-16T05:36:16.835Z,19.07
2022-09-16T05:39:04.578Z,19.41
2022-09-16T05:41:34.247Z,19.87
2022-09-16T05:44:01.882Z,20.00
2022-09-16T05:46:29.310Z,20.07
2022-09-16T05:48:56.959Z,20.35
2022-09-16T05:51:24.195Z,20.71
2022-09-16T05:53:52.461Z,21.00
2022-09-16T05:56:20.810Z,21.09
2022-09-16T05:58:48.064Z,21.14
2022-09-16T06:01:19.481Z,21.20
2022-09-16T06:03:48.612Z,21.37
2022-09-16T06:06:28.635Z,21.65
2022-09-16T06:08:58.223Z,21.86
2022-09-16T06:11:26.912Z,22.03
2022-09-16T06:14:02.879Z,22.15
2022-09-16T06:16:34.073Z,22.49
2022-09-16T06:19:03.516Z,22.72
2022-09-16T06:21:30.847Z,22.90
2022-09-16T06:23:58.509Z,23.12
2022-09-16T06:26:27.916Z,23.48
2022-09-16T06:28:55.850Z,23.55
2022-09-16T06:31:28.394Z,23.49
2022-09-16T06:33:58.096Z,23.54
2022-09-16T06:36:32.086Z,23.37
2022-09-16T06:38:59.265Z,23.27
2022-09-16T06:41:26.514Z,23.25
2022-09-16T06:43:53.615Z,23.24
2022-09-16T06:46:23.827Z,23.20
2022-09-16T06:48:53.991Z,23.20
2022-09-16T06:51:23.658Z,23.23
2022-09-16T06:53:51.623Z,23.28
2022-09-16T06:56:22.402Z,23.58
2022-09-16T06:58:53.631Z,23.72
2022-09-16T07:01:23.635Z,23.78
2022-09-16T07:03:52.983Z,23.87
2022-09-16T07:06:26.655Z,24.09
2022-09-16T07:09:06.287Z,24.33
2022-09-16T07:11:33.628Z,24.60
2022-09-16T07:14:02.559Z,24.95
2022-09-16T07:16:29.609Z,25.46
2022-09-16T07:19:01.172Z,25.86
2022-09-16T07:21:30.692Z,26.24
2022-09-16T07:24:02.234Z,26.61
2022-09-16T07:26:31.702Z,27.00
2022-09-16T07:29:03.552Z,27.43
2022-09-16T07:31:38.262Z,27.89
2022-09-16T07:34:07.345Z,28.05
2022-09-16T07:36:38.426Z,28.08
2022-09-16T07:39:06.884Z,28.12
2022-09-16T07:41:36.741Z,28.22
2022-09-16T07:44:05.038Z,28.32
2022-09-16T07:46:34.931Z,28.38
2022-09-16T07:49:04.087Z,28.52
2022-09-16T07:51:31.607Z,28.70
2022-09-16T07:54:08.937Z,28.69
2022-09-16T07:56:38.521Z,28.86
2022-09-16T07:59:07.428Z,29.11
2022-09-16T08:01:37.038Z,29.20
2022-09-16T08:04:06.949Z,29.08
2022-09-16T08:06:38.031Z,29.18
2022-09-16T08:09:15.600Z,29.38
2022-09-16T08:11:52.051Z,29.49
2022-09-16T08:14:19.311Z,29.53
2022-09-16T08:16:46.855Z,29.61
2022-09-16T08:19:14.272Z,29.65
2022-09-16T08:21:41.184Z,29.77
2022-09-16T08:24:09.889Z,30.00
2022-09-16T08:26:37.163Z,30.24
2022-09-16T08:29:08.949Z,30.49
2022-09-16T08:31:37.596Z,30.65
2022-09-16T08:34:05.432Z,30.86
2022-09-16T08:36:35.464Z,30.83
2022-09-16T08:39:02.634Z,30.83
2022-09-16T08:41:41.774Z,30.91
2022-09-16T08:44:14.577Z,31.04
2022-09-16T08:46:51.756Z,31.25
2022-09-16T08:50:00.282Z,31.39
2022-09-16T08:52:36.621Z,31.45
2022-09-16T08:55:07.365Z,31.62
2022-09-16T08:57:40.186Z,31.58
2022-09-16T09:00:16.280Z,31.80
2022-09-16T09:03:01.871Z,31.84
2022-09-16T09:06:02.419Z,32.03
2022-09-16T09:08:35.224Z,32.10
2022-09-16T09:11:32.543Z,32.09
2022-09-16T09:14:07.203Z,32.27
2022-09-16T09:16:46.830Z,32.41
2022-09-16T09:19:39.848Z,32.52
2022-09-16T09:22:36.114Z,32.60
2022-09-16T09:25:23.472Z,32.76
2022-09-16T09:27:55.864Z,32.93
2022-09-16T09:30:28.085Z,33.01
2022-09-16T09:33:44.280Z,33.03
2022-09-16T09:36:27.762Z,32.99
2022-09-16T09:39:04.709Z,33.10
2022-09-16T09:41:39.974Z,33.30
2022-09-16T09:44:55.259Z,33.34
2022-09-16T09:47:33.141Z,33.41
2022-09-16T09:50:12.567Z,33.46
2022-09-16T09:52:52.806Z,33.47
2022-09-16T09:55:22.752Z,33.40
2022-09-16T09:58:14.049Z,33.25
2022-09-16T10:00:41.674Z,33.29
2022-09-16T10:03:17.784Z,33.37
2022-09-16T10:05:47.134Z,33.53
2022-09-16T10:08:49.336Z,33.61
2022-09-16T10:11:23.164Z,33.45
2022-09-16T10:13:53.121Z,33.49
2022-09-16T10:16:23.177Z,33.27
2022-09-16T10:19:04.060Z,33.33
2022-09-16T10:22:12.099Z,33.27
2022-09-16T10:24:42.422Z,32.95
2022-09-16T10:27:27.440Z,33.08
2022-09-16T10:30:16.123Z,33.13
2022-09-16T10:32:48.261Z,33.14
2022-09-16T10:35:23.485Z,33.30
2022-09-16T10:37:54.563Z,33.42
2022-09-16T10:40:23.653Z,33.48
2022-09-16T10:42:53.695Z,33.47
2022-09-16T10:45:29.781Z,33.25
2022-09-16T10:48:04.875Z,33.18
2022-09-16T10:50:34.221Z,33.09
2022-09-16T10:53:00.977Z,32.98
2022-09-16T10:55:36.730Z,32.81
2022-09-16T10:58:17.099Z,32.73
2022-09-16T11:00:57.926Z,32.52
2022-09-16T11:03:49.834Z,32.35
2022-09-16T11:06:32.901Z,32.17
2022-09-16T11:09:24.646Z,32.09
2022-09-16T11:12:12.022Z,32.10
2022-09-16T11:15:00.528Z,32.05
2022-09-16T11:17:45.294Z,32.05
2022-09-16T11:20:18.273Z,32.03
2022-09-16T11:22:54.956Z,32.01
2022-09-16T11:25:47.716Z,31.98
2022-09-16T11:28:19.235Z,31.91
2022-09-16T11:31:15.738Z,31.85
2022-09-16T11:33:49.988Z,31.89
2022-09-16T11:36:36.715Z,31.88
2022-09-16T11:39:03.539Z,31.95
2022-09-16T11:41:33.843Z,31.96
2022-09-16T11:44:19.548Z,32.00
2022-09-16T11:46:55.412Z,31.89
2022-09-16T11:49:25.847Z,31.88
2022-09-16T11:52:29.810Z,31.72
2022-09-16T11:55:18.507Z,31.56
2022-09-16T11:57:53.137Z,31.42
2022-09-16T12:00:20.649Z,31.31
2022-09-16T12:03:26.623Z,31.21
2022-09-16T12:06:05.363Z,31.08
2022-09-16T12:08:50.354Z,30.97
2022-09-16T12:11:33.810Z,30.77
2022-09-16T12:14:15.595Z,30.63
2022-09-16T12:16:55.194Z,30.60
2022-09-16T12:19:49.087Z,30.48
2022-09-16T12:22:23.226Z,30.44
2022-09-16T12:25:01.016Z,30.39
2022-09-16T12:28:12.994Z,30.37
2022-09-16T12:30:46.877Z,30.14
2022-09-16T12:33:25.725Z,29.91
2022-09-16T12:35:53.040Z,29.75
2022-09-16T12:38:21.697Z,29.52
2022-09-16T12:41:06.908Z,29.34
2022-09-16T12:44:33.088Z,29.31
2022-09-16T12:47:26.044Z,29.11
2022-09-16T12:50:22.492Z,29.02
2022-09-16T12:53:33.286Z,28.85
2022-09-16T12:56:14.991Z,28.55
2022-09-16T12:59:20.593Z,28.28
2022-09-16T13:01:56.613Z,27.97
2022-09-16T13:04:34.548Z,27.63
2022-09-16T13:07:02.560Z,27.44
2022-09-16T13:09:37.434Z,27.38
2022-09-16T13:12:36.419Z,27.26
2022-09-16T13:14:58.325Z,27.21
2022-09-16T13:17:36.385Z,27.10
2022-09-16T13:20:27.275Z,27.04
2022-09-16T13:23:04.345Z,26.98
2022-09-16T13:25:50.270Z,26.90
2022-09-16T13:28:41.038Z,26.82
2022-09-16T13:31:15.627Z,26.71
2022-09-16T13:34:02.220Z,26.60
2022-09-16T13:36:32.488Z,26.50
2022-09-16T13:39:05.681Z,26.49
2022-09-16T13:41:36.389Z,26.36
2022-09-16T13:44:37.617Z,26.21
2022-09-16T13:47:15.876Z,26.07
2022-09-16T13:50:21.656Z,26.04
2022-09-16T13:52:49.377Z,26.03
2022-09-16T13:55:26.928Z,26.08
2022-09-16T13:58:05.674Z,26.14
2022-09-16T14:00:49.769Z,26.18
2022-09-16T14:03:44.595Z,26.29
2022-09-16T14:06:31.152Z,26.40
2022-09-16T14:09:09.478Z,26.49
2022-09-16T14:12:09.388Z,26.59
2022-09-16T14:14:46.869Z,26.66
2022-09-16T14:17:28.343Z,26.75
2022-09-16T14:20:00.623Z,26.69
2022-09-16T14:22:28.257Z,26.66
2022-09-16T14:25:06.298Z,26.62
2022-09-16T14:27:40.291Z,26.56
2022-09-16T14:30:17.390Z,26.62
2022-09-16T14:32:46.429Z,26.50
2022-09-16T14:35:21.592Z,26.43
2022-09-16T14:37:53.851Z,26.38
2022-09-16T14:40:25.363Z,26.37
2022-09-16T14:43:12.667Z,26.35
2022-09-16T14:45:49.870Z,26.31
2022-09-16T14:48:19.097Z,26.29
2022-09-16T14:50:48.580Z,26.23
2022-09-16T14:53:55.458Z,26.18
2022-09-16T14:56:29.550Z,26.05
2022-09-16T14:58:57.802Z,25.93
2022-09-16T15:01:28.498Z,25.81
2022-09-16T15:04:17.337Z,25.67
2022-09-16T15:06:55.156Z,25.56
2022-09-16T15:09:48.583Z,25.45
2022-09-16T15:12:24.644Z,25.36
2022-09-16T15:14:52.157Z,25.19
2022-09-16T15:17:21.044Z,25.09
2022-09-16T15:19:56.027Z,24.92
2022-09-16T15:22:24.252Z,24.69
2022-09-16T15:24:55.565Z,24.35
2022-09-16T15:27:29.441Z,24.14
2022-09-16T15:30:00.250Z,23.94
2022-09-16T15:32:32.123Z,23.87
2022-09-16T15:35:20.007Z,23.61
2022-09-16T15:37:47.390Z,23.53
2022-09-16T15:40:28.526Z,23.37
2022-09-16T15:43:28.406Z,23.23
2022-09-16T15:46:02.225Z,23.18
2022-09-16T15:48:43.398Z,23.07
2022-09-16T15:51:40.411Z,22.98
2022-09-16T15:54:20.055Z,22.73
2022-09-16T15:56:59.816Z,22.65
2022-09-16T15:59:43.377Z,22.59
2022-09-16T16:02:43.186Z,22.43
2022-09-16T16:05:14.785Z,22.35
2022-09-16T16:07:51.301Z,22.19
2022-09-16T16:10:25.969Z,22.25
2022-09-16T16:12:59.083Z,22.10
2022-09-16T16:15:38.206Z,21.93
2022-09-16T16:18:08.599Z,22.00
2022-09-16T16:20:37.664Z,21.97
2022-09-16T16:23:04.848Z,21.89
2022-09-16T16:25:32.789Z,21.83
2022-09-16T16:27:59.973Z,21.87
2022-09-16T16:30:27.221Z,21.84
2022-09-16T16:32:54.421Z,21.73
2022-09-16T16:35:21.853Z,21.73
2022-09-16T16:37:49.105Z,21.65
2022-09-16T16:40:16.707Z,21.56
2022-09-16T16:42:44.564Z,21.41
2022-09-16T16:45:13.754Z,21.35
2022-09-16T16:47:41.769Z,21.28
2022-09-16T16:50:09.742Z,21.25
2022-09-16T16:52:37.410Z,21.24
2022-09-16T16:55:06.205Z,21.11
2022-09-16T16:57:33.525Z,21.07
2022-09-16T17:00:01.200Z,21.00
2022-09-16T17:02:28.265Z,20.85
2022-09-16T17:04:56.083Z,20.79
2022-09-16T17:07:26.617Z,20.78
2022-09-16T17:09:55.496Z,20.76
2022-09-16T17:12:23.212Z,20.66
2022-09-16T17:14:50.590Z,20.63
2022-09-16T17:17:18.468Z,20.59
2022-09-16T17:19:45.857Z,20.52
2022-09-16T17:22:14.262Z,20.55
2022-09-16T17:24:43.029Z,20.52
2022-09-16T17:27:10.255Z,20.50
2022-09-16T17:29:40.558Z,20.41
2022-09-16T17:32:08.870Z,20.37
2022-09-16T17:34:36.514Z,20.35
2022-09-16T17:37:05.274Z,20.36
2022-09-16T17:39:33.148Z,20.22
2022-09-16T17:42:06.835Z,20.22
2022-09-16T17:44:40.871Z,20.22
2022-09-16T17:47:08.242Z,20.21
2022-09-16T17:49:35.897Z,20.11
2022-09-16T17:52:03.463Z,20.06
2022-09-16T17:54:32.247Z,19.96
2022-09-16T17:57:00.670Z,19.95
2022-09-16T17:59:28.051Z,19.97
2022-09-16T18:01:55.666Z,19.92
2022-09-16T18:04:23.141Z,19.82
2022-09-16T18:06:51.759Z,19.73
2022-09-16T18:09:19.669Z,19.76
2022-09-16T18:11:47.592Z,19.72
2022-09-16T18:14:18.063Z,19.69
2022-09-16T18:16:50.939Z,19.74
2022-09-16T18:19:21.342Z,19.63
2022-09-16T18:21:48.733Z,19.67
2022-09-16T18:24:16.623Z,19.66
2022-09-16T18:26:44.433Z,19.47
2022-09-16T18:29:13.763Z,19.47
2022-09-16T18:31:46.239Z,19.44
2022-09-16T18:34:14.781Z,19.51
2022-09-16T18:36:43.002Z,19.47
2022-09-16T18:39:16.053Z,19.39
2022-09-16T18:41:45.582Z,19.33
2022-09-16T18:44:20.372Z,19.16
2022-09-16T18:46:48.116Z,19.13
2022-09-16T18:49:16.864Z,19.18
2022-09-16T18:51:50.848Z,19.07
2022-09-16T18:54:28.679Z,19.07
2022-09-16T18:57:01.658Z,19.14
2022-09-16T18:59:31.595Z,19.08
2022-09-16T19:02:01.440Z,19.07
2022-09-16T19:04:31.978Z,19.08
2022-09-16T19:07:08.537Z,19.11
2022-09-16T19:09:38.494Z,18.99
2022-09-16T19:12:09.122Z,18.98
2022-09-16T19:14:37.149Z,18.96
2022-09-16T19:17:05.233Z,18.93
2022-09-16T19:19:33.027Z,18.88
2022-09-16T19:22:06.174Z,18.88
2022-09-16T19:24:34.691Z,18.71
2022-09-16T19:27:03.770Z,18.67
2022-09-16T19:29:33.207Z,18.74
2022-09-16T19:32:01.834Z,18.66
2022-09-16T19:34:30.400Z,18.69
2022-09-16T19:36:58.074Z,18.66
2022-09-16T19:39:27.461Z,18.55
2022-09-16T19:41:56.353Z,18.51
2022-09-16T19:44:26.747Z,18.61
2022-09-16T19:46:54.860Z,18.50
2022-09-16T19:49:23.814Z,18.42
2022-09-16T19:51:54.635Z,18.39
2022-09-16T19:54:24.555Z,18.29
2022-09-16T19:56:52.707Z,18.29
2022-09-16T19:59:21.439Z,18.32
2022-09-16T20:01:49.874Z,18.30
2022-09-16T20:04:20.219Z,18.38
2022-09-16T20:06:48.871Z,18.40
2022-09-16T20:09:17.614Z,18.37
2022-09-16T20:11:47.183Z,18.27
2022-09-16T20:14:19.649Z,18.17
2022-09-16T20:16:48.506Z,18.14
2022-09-16T20:19:18.428Z,18.16
2022-09-16T20:21:46.381Z,18.18
2022-09-16T20:24:18.990Z,18.12
2022-09-16T20:26:48.167Z,18.02
2022-09-16T20:29:18.038Z,18.02
2022-09-16T20:31:49.139Z,18.07
2022-09-16T20:34:20.499Z,18.02
2022-09-16T20:36:49.430Z,17.99
2022-09-16T20:39:18.540Z,17.97
2022-09-16T20:41:51.550Z,17.99
2022-09-16T20:44:18.985Z,18.00
2022-09-16T20:46:47.253Z,17.93
2022-09-16T20:49:17.312Z,17.90
2022-09-16T20:51:45.682Z,17.81
2022-09-16T20:54:16.399Z,17.86
2022-09-16T20:56:47.488Z,17.74
2022-09-16T20:59:17.280Z,17.78
2022-09-16T21:01:45.559Z,17.77
2022-09-16T21:04:17.244Z,17.77
2022-09-16T21:06:45.221Z,17.69
2022-09-16T21:09:14.769Z,17.75
2022-09-16T21:11:45.948Z,17.73
2022-09-16T21:14:16.660Z,17.63
2022-09-16T21:16:46.128Z,17.56
2022-09-16T21:19:14.458Z,17.64
2022-09-16T21:21:48.923Z,17.60
2022-09-16T21:24:16.927Z,17.58
2022-09-16T21:26:45.075Z,17.50
2022-09-16T21:29:15.546Z,17.49
2022-09-16T21:31:43.782Z,17.49
2022-09-16T21:34:16.260Z,17.42
2022-09-16T21:36:44.972Z,17.41
2022-09-16T21:39:14.098Z,17.33
2022-09-16T21:41:41.638Z,17.31
2022-09-16T21:44:09.083Z,17.34
2022-09-16T21:46:41.877Z,17.41
2022-09-16T21:49:25.879Z,17.27
2022-09-16T21:51:55.782Z,17.34
2022-09-16T21:54:23.468Z,17.26
2022-09-16T21:56:51.915Z,17.27
2022-09-16T21:59:22.123Z,17.25
2022-09-16T22:01:51.353Z,17.32
2022-09-16T22:04:23.494Z,17.29
2022-09-16T22:06:52.947Z,17.37
2022-09-16T22:09:20.004Z,17.31
2022-09-16T22:11:47.893Z,17.22
2022-09-16T22:14:16.625Z,17.29
2022-09-16T22:16:44.480Z,17.23
2022-09-16T22:19:12.895Z,17.27
2022-09-16T22:21:43.956Z,17.24
2022-09-16T22:24:11.841Z,17.21
2022-09-16T22:26:39.787Z,17.20
2022-09-16T22:29:09.257Z,17.22
2022-09-16T22:31:38.479Z,17.13
2022-09-16T22:34:05.851Z,17.17
2022-09-16T22:36:35.484Z,17.10
2022-09-16T22:39:07.682Z,17.14
2022-09-16T22:41:35.439Z,17.07
2022-09-16T22:44:02.608Z,17.15
2022-09-16T22:46:33.493Z,17.04
2022-09-16T22:49:01.724Z,16.97
2022-09-16T22:51:29.552Z,16.97
2022-09-16T22:53:56.826Z,16.98
2022-09-16T22:56:28.846Z,16.78
2022-09-16T22:58:59.009Z,16.73
2022-09-16T23:01:38.741Z,16.73
2022-09-16T23:04:07.496Z,16.75
2022-09-16T23:06:36.139Z,16.81
2022-09-16T23:09:04.833Z,16.71
2022-09-16T23:11:33.793Z,16.73
2022-09-16T23:14:01.989Z,16.71
2022-09-16T23:16:36.251Z,16.75
2022-09-16T23:19:06.850Z,16.74
2022-09-16T23:21:34.162Z,16.73
2022-09-16T23:24:03.601Z,16.71
2022-09-16T23:26:33.585Z,16.75
2022-09-16T23:29:03.258Z,16.71
2022-09-16T23:31:35.888Z,16.75
2022-09-16T23:34:07.824Z,16.77
2022-09-16T23:36:37.902Z,16.74
2022-09-16T23:39:07.228Z,16.71
2022-09-16T23:41:35.556Z,16.70
2022-09-16T23:44:03.244Z,16.82
2022-09-16T23:46:31.514Z,16.83
2022-09-16T23:48:59.248Z,16.78
2022-09-16T23:51:28.652Z,16.77
2022-09-16T23:53:57.601Z,16.70
2022-09-16T23:56:25.035Z,16.80
2022-09-16T23:58:53.188Z,16.68
